Time;durP1;ratioP1;P1;durP2;ratioP2;P2;SDS_P1;SDS_P2;PMS_P1;PMS_P2;Temp;Humidity;BMP_temperature;BMP_pressure;BME280_temperature;BME280_humidity;BME280_pressure;Samples;Min_cycle;Max_cycle;Signal;HPM_P1;HPM_P2
2021/08/04 00:02:13;;;;;;;6.20;4.70;;;15.00;99.90;;;;;;5012339;28;20050;-74
2021/08/04 00:04:38;;;;;;;7.93;5.03;;;15.00;99.90;;;;;;5011942;28;20045;-75
2021/08/04 00:07:04;;;;;;;8.90;4.97;;;15.10;99.90;;;;;;5010390;28;20028;-75
2021/08/04 00:09:29;;;;;;;6.25;5.10;;;15.00;99.90;;;;;;5008373;28;20029;-75
2021/08/04 00:11:55;;;;;;;8.40;4.93;;;14.90;99.90;;;;;;5013439;28;20022;-75
2021/08/04 00:14:21;;;;;;;10.27;4.63;;;14.80;99.90;;;;;;5004848;28;20029;-75
2021/08/04 00:16:46;;;;;;;5.05;4.43;;;14.80;99.90;;;;;;5012363;28;20029;-75
2021/08/04 00:19:12;;;;;;;9.25;4.72;;;14.80;99.90;;;;;;5008626;28;20021;-74
2021/08/04 00:21:39;;;;;;;8.60;5.10;;;14.80;99.90;;;;;;5008388;28;20388;-74
2021/08/04 00:24:05;;;;;;;10.88;4.63;;;14.80;99.90;;;;;;5008787;28;20026;-74
2021/08/04 00:26:30;;;;;;;7.88;4.65;;;14.90;99.90;;;;;;5008204;28;20025;-74
2021/08/04 00:28:56;;;;;;;6.82;5.07;;;14.90;99.90;;;;;;5012259;28;20044;-74
2021/08/04 00:31:21;;;;;;;8.32;5.68;;;14.90;99.90;;;;;;5010162;28;20022;-75
2021/08/04 00:33:47;;;;;;;7.88;5.63;;;14.90;99.90;;;;;;5012933;28;20029;-75
2021/08/04 00:36:12;;;;;;;7.03;5.07;;;14.90;99.90;;;;;;5009911;28;20492;-74
2021/08/04 00:38:38;;;;;;;8.65;5.00;;;14.90;99.90;;;;;;5005463;28;20452;-75
2021/08/04 00:41:04;;;;;;;9.05;5.55;;;14.80;99.90;;;;;;5009488;28;20026;-74
2021/08/04 00:43:30;;;;;;;6.13;4.88;;;14.80;99.90;;;;;;5011568;28;20028;-74
2021/08/04 00:45:55;;;;;;;6.78;4.75;;;14.70;99.90;;;;;;5009905;28;20049;-75
2021/08/04 00:48:22;;;;;;;6.63;4.90;;;14.80;99.90;;;;;;5007781;28;20052;-75
2021/08/04 00:50:47;;;;;;;7.13;5.35;;;14.90;99.90;;;;;;5012610;28;20547;-75
2021/08/04 00:53:24;;;;;;;7.88;4.80;;;14.80;99.90;;;;;;5000402;28;20121;-75
2021/08/04 00:55:51;;;;;;;7.13;4.93;;;14.80;99.90;;;;;;5011331;28;20420;-75
2021/08/04 00:58:28;;;;;;;6.57;4.88;;;14.70;99.90;;;;;;5001281;28;20049;-75
2021/08/04 01:01:04;;;;;;;7.50;4.70;;;14.70;99.90;;;;;;5012334;28;20030;-74
2021/08/04 01:03:35;;;;;;;;;;;14.50;99.90;;;;;;5012982;28;20014;-75
2021/08/04 01:06:06;;;;;;;7.28;4.10;;;14.60;99.90;;;;;;5000730;28;19993;-74
2021/08/04 01:08:40;;;;;;;5.55;4.25;;;14.50;99.90;;;;;;5012480;28;20026;-75
2021/08/04 01:11:10;;;;;;;8.27;4.63;;;14.50;99.90;;;;;;5004650;28;20028;-74
2021/08/04 01:13:48;;;;;;;8.30;4.25;;;14.60;99.90;;;;;;5004518;28;20073;-75
2021/08/04 01:16:21;;;;;;;9.20;5.28;;;14.70;99.90;;;;;;5009256;28;20040;-75
2021/08/04 01:18:59;;;;;;;9.43;5.05;;;14.70;99.90;;;;;;5002587;28;20044;-75
2021/08/04 01:21:39;;;;;;;6.43;4.70;;;14.80;99.90;;;;;;5004121;28;20487;-74
2021/08/04 01:24:19;;;;;;;8.32;4.57;;;14.80;99.90;;;;;;5004647;28;20117;-75
2021/08/04 01:26:47;;;;;;;8.10;4.50;;;14.70;99.90;;;;;;5008382;28;20039;-75
2021/08/04 01:29:19;;;;;;;10.40;5.43;;;14.60;99.90;;;;;;5008216;28;20026;-74
2021/08/04 01:31:48;;;;;;;8.27;4.43;;;14.50;99.90;;;;;;5000924;28;20025;-75
2021/08/04 01:34:16;;;;;;;7.07;4.90;;;14.50;99.90;;;;;;5004462;28;20036;-75
2021/08/04 01:36:43;;;;;;;6.47;4.32;;;14.60;99.90;;;;;;4999348;28;20026;-75
2021/08/04 01:39:12;;;;;;;6.63;4.75;;;14.70;99.90;;;;;;5008472;28;20484;-75
2021/08/04 01:41:40;;;;;;;6.35;4.65;;;14.70;99.90;;;;;;5002584;28;20030;-75
2021/08/04 01:44:07;;;;;;;7.53;4.80;;;14.70;99.90;;;;;;5008724;28;20026;-75
2021/08/04 01:46:34;;;;;;;6.05;4.40;;;14.50;99.90;;;;;;5005544;28;20420;-75
2021/08/04 01:49:01;;;;;;;7.47;4.20;;;14.50;99.90;;;;;;5009845;28;20451;-75
2021/08/04 01:51:28;;;;;;;6.18;4.25;;;14.50;99.90;;;;;;4996426;28;20439;-74
2021/08/04 01:53:55;;;;;;;8.30;4.57;;;14.50;99.90;;;;;;5008557;28;20036;-75
2021/08/04 01:56:21;;;;;;;8.35;4.25;;;14.50;99.90;;;;;;5011393;28;20030;-75
2021/08/04 01:58:47;;;;;;;5.75;4.45;;;14.50;99.90;;;;;;5003795;28;20050;-75
2021/08/04 02:01:13;;;;;;;6.78;4.45;;;14.50;99.90;;;;;;5003814;28;20417;-75
2021/08/04 02:03:39;;;;;;;7.05;4.47;;;14.50;99.90;;;;;;5010928;28;20018;-74
2021/08/04 02:06:17;;;;;;;5.25;4.32;;;14.40;99.90;;;;;;5003208;28;20068;-75
2021/08/04 02:09:00;;;;;;;5.53;4.20;;;14.50;99.90;;;;;;5000781;28;20021;-75
2021/08/04 02:11:41;;;;;;;7.35;4.47;;;14.60;99.90;;;;;;5001502;28;20026;-75
2021/08/04 02:14:19;;;;;;;7.72;4.22;;;14.50;99.90;;;;;;5006180;28;20051;-74
2021/08/04 02:17:16;;;;;;;9.15;4.80;;;14.50;99.90;;;;;;5011556;28;20022;-75
2021/08/04 02:19:50;;;;;;;9.18;3.90;;;14.50;99.90;;;;;;4999735;28;20014;-75
2021/08/04 02:22:23;;;;;;;5.35;4.40;;;14.50;99.90;;;;;;5007766;28;20361;-75
2021/08/04 02:24:55;;;;;;;6.68;4.25;;;14.50;99.90;;;;;;5012397;28;20021;-74
2021/08/04 02:27:21;;;;;;;5.85;4.40;;;14.60;99.90;;;;;;5010332;28;20519;-74
2021/08/04 02:29:49;;;;;;;6.32;4.20;;;14.50;99.90;;;;;;5014274;28;20117;-74
2021/08/04 02:32:15;;;;;;;7.55;4.18;;;14.60;99.90;;;;;;5007969;28;20045;-74
2021/08/04 02:34:41;;;;;;;7.00;4.47;;;14.60;99.90;;;;;;5009301;28;20034;-74
2021/08/04 02:37:07;;;;;;;6.55;4.60;;;14.50;99.90;;;;;;5006645;28;20033;-74
2021/08/04 02:39:33;;;;;;;5.63;4.60;;;14.50;99.90;;;;;;5007901;28;20025;-75
2021/08/04 02:41:59;;;;;;;8.00;4.38;;;14.50;99.90;;;;;;5013877;28;20061;-74
2021/08/04 02:44:25;;;;;;;9.40;4.30;;;14.40;99.90;;;;;;5001154;28;20048;-75
2021/08/04 02:46:51;;;;;;;7.97;4.28;;;14.40;99.90;;;;;;4995514;28;20022;-76
2021/08/04 02:49:17;;;;;;;6.03;4.57;;;14.40;99.90;;;;;;4994182;28;20049;-76
2021/08/04 02:51:43;;;;;;;6.13;4.70;;;14.40;99.90;;;;;;4994057;28;20177;-75
2021/08/04 02:54:12;;;;;;;6.68;4.75;;;14.40;99.90;;;;;;4995347;28;20077;-76
2021/08/04 02:56:37;;;;;;;7.65;5.00;;;14.40;99.90;;;;;;5002724;28;20088;-75
2021/08/04 02:59:03;;;;;;;5.15;4.25;;;14.40;99.90;;;;;;5001467;28;20030;-75
2021/08/04 03:01:29;;;;;;;5.63;4.40;;;14.40;99.90;;;;;;5007438;28;20034;-75
2021/08/04 03:03:54;;;;;;;5.32;4.72;;;14.40;99.90;;;;;;5008907;28;20026;-75
2021/08/04 03:06:19;;;;;;;9.00;4.63;;;14.40;99.90;;;;;;5006543;28;20034;-75
2021/08/04 03:08:45;;;;;;;5.43;4.63;;;14.40;99.90;;;;;;5008205;28;20061;-76
2021/08/04 03:11:10;;;;;;;5.78;4.28;;;14.40;99.90;;;;;;5002967;28;20423;-75
2021/08/04 03:13:36;;;;;;;7.93;5.03;;;14.30;99.90;;;;;;5001258;28;20038;-75
2021/08/04 03:16:02;;;;;;;8.13;5.18;;;14.40;99.90;;;;;;5006798;28;20081;-75
2021/08/04 03:18:28;;;;;;;6.45;4.68;;;14.40;99.90;;;;;;5008049;28;20025;-74
2021/08/04 03:20:53;;;;;;;7.90;4.47;;;14.40;99.90;;;;;;5002258;28;20041;-75
2021/08/04 03:23:19;;;;;;;8.25;4.70;;;14.50;99.90;;;;;;5001210;28;20105;-76
2021/08/04 03:25:45;;;;;;;8.05;4.85;;;14.50;99.90;;;;;;5006570;28;20389;-75
2021/08/04 03:28:11;;;;;;;7.18;4.78;;;14.40;99.90;;;;;;5007914;28;20026;-76
2021/08/04 03:30:36;;;;;;;6.88;5.03;;;14.40;99.90;;;;;;5000863;28;20365;-75
2021/08/04 03:33:02;;;;;;;7.93;5.03;;;14.50;99.90;;;;;;5001161;28;20089;-75
2021/08/04 03:35:27;;;;;;;9.93;5.38;;;14.60;99.90;;;;;;5014007;28;20101;-75
2021/08/04 03:37:53;;;;;;;7.32;4.95;;;14.40;99.90;;;;;;5000976;28;20035;-75
2021/08/04 03:40:19;;;;;;;9.25;5.47;;;14.50;99.90;;;;;;5014081;28;20030;-75
2021/08/04 03:42:44;;;;;;;7.90;4.55;;;14.60;99.90;;;;;;5000802;28;20026;-74
2021/08/04 03:45:10;;;;;;;6.18;4.90;;;14.60;99.90;;;;;;4994488;28;20022;-74
2021/08/04 03:47:36;;;;;;;5.18;4.57;;;14.50;99.90;;;;;;5007622;28;20026;-74
2021/08/04 03:50:03;;;;;;;7.32;5.35;;;14.50;99.90;;;;;;4994505;28;20053;-74
2021/08/04 03:52:28;;;;;;;5.75;4.53;;;14.50;99.90;;;;;;4994776;28;20058;-74
2021/08/04 03:54:54;;;;;;;5.50;4.82;;;14.40;99.90;;;;;;5013929;28;20060;-74
2021/08/04 03:57:19;;;;;;;6.80;5.13;;;14.40;99.90;;;;;;5000861;28;20512;-74
2021/08/04 03:59:45;;;;;;;6.95;4.70;;;14.30;99.90;;;;;;4994076;28;20424;-74
2021/08/04 04:02:10;;;;;;;9.75;5.20;;;14.40;99.90;;;;;;5006999;28;20033;-75
2021/08/04 04:04:37;;;;;;;8.15;4.72;;;14.40;99.90;;;;;;4994238;28;20029;-75
2021/08/04 04:07:02;;;;;;;11.65;4.85;;;14.30;99.90;;;;;;5007271;28;20048;-75
2021/08/04 04:09:29;;;;;;;6.80;5.00;;;14.30;99.90;;;;;;5000684;28;20412;-75
2021/08/04 04:11:55;;;;;;;8.93;5.38;;;14.30;99.90;;;;;;5013299;28;20026;-75
2021/08/04 04:14:21;;;;;;;6.30;5.10;;;14.30;99.90;;;;;;5002184;28;20030;-74
2021/08/04 04:16:46;;;;;;;6.40;5.63;;;14.30;99.90;;;;;;5000901;28;20023;-74
2021/08/04 04:19:12;;;;;;;8.55;5.60;;;14.30;99.90;;;;;;4993974;28;20053;-75
2021/08/04 04:21:37;;;;;;;7.53;5.53;;;14.30;99.90;;;;;;4994058;28;20374;-74
2021/08/04 04:24:03;;;;;;;8.52;5.90;;;14.30;99.90;;;;;;4975280;28;20035;-74
2021/08/04 04:26:30;;;;;;;10.00;5.43;;;14.30;99.90;;;;;;5000846;28;20030;-74
2021/08/04 04:28:56;;;;;;;8.07;5.57;;;14.30;99.90;;;;;;4993278;28;20528;-74
2021/08/04 04:31:21;;;;;;;8.20;5.47;;;14.30;99.90;;;;;;5007975;28;20037;-73
2021/08/04 04:33:47;;;;;;;8.95;5.55;;;14.30;99.90;;;;;;5007329;28;20081;-74
2021/08/04 04:36:12;;;;;;;7.63;5.90;;;14.30;99.90;;;;;;4994245;28;20034;-74
2021/08/04 04:38:38;;;;;;;9.75;6.07;;;14.30;99.90;;;;;;5005944;28;20507;-74
2021/08/04 04:41:03;;;;;;;7.38;5.90;;;14.50;99.90;;;;;;5007233;28;20394;-73
2021/08/04 04:43:29;;;;;;;9.82;6.30;;;14.50;99.90;;;;;;5001942;28;20477;-74
2021/08/04 04:45:54;;;;;;;7.50;6.00;;;14.50;99.90;;;;;;5000732;28;20026;-75
2021/08/04 04:48:20;;;;;;;9.50;5.90;;;14.60;99.90;;;;;;5007568;28;20037;-74
2021/08/04 04:50:45;;;;;;;10.65;6.47;;;14.50;99.90;;;;;;4994463;28;20038;-74
2021/08/04 04:53:11;;;;;;;10.10;6.72;;;14.60;99.90;;;;;;4993867;28;20037;-74
2021/08/04 04:55:36;;;;;;;8.55;6.30;;;14.50;99.90;;;;;;4993564;28;20035;-73
2021/08/04 04:58:02;;;;;;;9.45;6.10;;;14.90;99.90;;;;;;5005255;28;20031;-74
2021/08/04 05:00:28;;;;;;;8.30;6.10;;;14.60;99.90;;;;;;5003744;28;20026;-75
2021/08/04 05:02:53;;;;;;;8.95;6.22;;;14.70;99.90;;;;;;4999405;28;20080;-74
2021/08/04 05:05:19;;;;;;;10.73;6.72;;;14.80;99.90;;;;;;5011138;28;20463;-74
2021/08/04 05:07:45;;;;;;;8.10;6.18;;;14.70;99.90;;;;;;4999357;28;20030;-74
2021/08/04 05:10:11;;;;;;;10.38;6.00;;;14.70;99.90;;;;;;4998897;28;20122;-74
2021/08/04 05:12:36;;;;;;;9.10;6.80;;;14.60;99.90;;;;;;5006011;28;20440;-74
2021/08/04 05:15:03;;;;;;;9.23;6.07;;;14.60;99.90;;;;;;5005166;28;20033;-73
2021/08/04 05:17:29;;;;;;;7.72;6.45;;;14.70;99.90;;;;;;5006738;28;20070;-74
2021/08/04 05:19:54;;;;;;;10.68;6.05;;;14.60;99.90;;;;;;4992621;28;20068;-74
2021/08/04 05:22:20;;;;;;;9.55;6.57;;;14.80;99.90;;;;;;5011526;28;20022;-73
2021/08/04 05:24:46;;;;;;;8.38;6.35;;;14.80;99.90;;;;;;4999842;28;20026;-74
2021/08/04 05:27:11;;;;;;;8.70;6.80;;;14.80;99.90;;;;;;5009197;28;20026;-74
2021/08/04 05:29:36;;;;;;;8.65;6.80;;;14.90;99.90;;;;;;4992615;28;20543;-74
2021/08/04 05:32:03;;;;;;;8.95;6.85;;;14.90;99.90;;;;;;4998561;28;20076;-74
2021/08/04 05:34:28;;;;;;;8.65;6.28;;;14.90;99.90;;;;;;4992481;28;20385;-73
2021/08/04 05:36:54;;;;;;;11.02;6.68;;;14.90;99.90;;;;;;4992444;28;20049;-73
2021/08/04 05:39:19;;;;;;;10.00;7.13;;;14.90;99.90;;;;;;4992431;28;20081;-74
2021/08/04 05:41:45;;;;;;;10.43;6.75;;;14.90;99.90;;;;;;5001411;28;20030;-74
2021/08/04 05:44:10;;;;;;;9.63;7.13;;;15.00;99.90;;;;;;5004805;28;20092;-74
2021/08/04 05:46:36;;;;;;;8.25;6.80;;;15.10;99.90;;;;;;4998729;28;20117;-74
2021/08/04 05:49:02;;;;;;;10.07;7.47;;;15.10;99.90;;;;;;4999609;28;20030;-74
2021/08/04 05:51:27;;;;;;;8.55;7.03;;;15.20;99.90;;;;;;4998103;28;20034;-73
2021/08/04 05:53:53;;;;;;;10.80;7.03;;;15.20;99.90;;;;;;4999705;28;20066;-73
2021/08/04 05:56:18;;;;;;;10.55;7.63;;;15.20;99.90;;;;;;5010879;28;20022;-74
2021/08/04 05:58:44;;;;;;;7.75;6.95;;;15.30;99.90;;;;;;5002316;28;20544;-74
2021/08/04 06:01:09;;;;;;;8.90;7.63;;;15.30;99.90;;;;;;5009523;28;20077;-75
2021/08/04 06:03:36;;;;;;;8.25;7.10;;;15.30;99.90;;;;;;5007747;28;20688;-74
2021/08/04 06:06:01;;;;;;;11.38;6.95;;;15.30;99.90;;;;;;5010400;28;20038;-74
2021/08/04 06:08:28;;;;;;;8.70;7.28;;;15.20;99.90;;;;;;5008009;28;20065;-72
2021/08/04 06:10:53;;;;;;;12.23;7.45;;;15.10;99.90;;;;;;4997243;28;20384;-73
2021/08/04 06:13:19;;;;;;;9.10;8.05;;;15.20;99.90;;;;;;4996289;28;20101;-73
2021/08/04 06:15:44;;;;;;;8.57;7.07;;;15.30;99.90;;;;;;5009208;28;20037;-75
2021/08/04 06:18:10;;;;;;;12.55;7.22;;;15.20;99.90;;;;;;5007693;28;20105;-74
2021/08/04 06:20:35;;;;;;;10.15;8.00;;;15.30;99.90;;;;;;4997200;28;20515;-74
2021/08/04 06:23:01;;;;;;;11.57;7.60;;;15.20;99.90;;;;;;4996024;28;20034;-72
2021/08/04 06:25:26;;;;;;;10.43;7.57;;;15.30;99.90;;;;;;5000581;28;20109;-74
2021/08/04 06:27:52;;;;;;;9.90;7.15;;;15.20;99.90;;;;;;5004057;28;20030;-74
2021/08/04 06:30:18;;;;;;;11.13;7.07;;;15.30;99.90;;;;;;5008911;28;20064;-73
2021/08/04 06:32:44;;;;;;;9.50;6.90;;;15.30;99.90;;;;;;5007018;28;20384;-73
2021/08/04 06:35:11;;;;;;;10.02;7.40;;;15.50;99.90;;;;;;5002047;28;20037;-74
2021/08/04 06:37:36;;;;;;;8.73;7.00;;;15.50;99.90;;;;;;5002623;28;20034;-74
2021/08/04 06:40:03;;;;;;;8.88;7.03;;;15.80;99.90;;;;;;5007331;28;20022;-74
2021/08/04 06:42:29;;;;;;;8.38;6.68;;;16.10;99.90;;;;;;5007142;28;20057;-74
2021/08/04 06:44:55;;;;;;;13.52;7.57;;;16.30;99.90;;;;;;5001673;28;20100;-75
2021/08/04 06:47:20;;;;;;;9.13;7.03;;;16.30;99.90;;;;;;5015114;28;20036;-74
2021/08/04 06:49:46;;;;;;;7.78;6.97;;;16.40;99.90;;;;;;4996515;28;20039;-73
2021/08/04 06:52:11;;;;;;;16.17;7.25;;;16.60;99.90;;;;;;5005130;28;20039;-74
2021/08/04 06:54:37;;;;;;;10.23;7.20;;;16.10;99.90;;;;;;5000327;28;20018;-73
2021/08/04 06:57:03;;;;;;;7.88;7.07;;;16.10;99.90;;;;;;5002945;28;20058;-73
2021/08/04 06:59:29;;;;;;;8.18;7.38;;;16.00;99.90;;;;;;4998304;28;20038;-73
2021/08/04 07:01:54;;;;;;;9.45;7.28;;;16.10;99.90;;;;;;5002612;28;20037;-74
2021/08/04 07:04:20;;;;;;;10.27;7.25;;;16.20;99.90;;;;;;5006581;28;20030;-74
2021/08/04 07:07:00;;;;;;;8.23;7.38;;;16.00;99.90;;;;;;5005161;28;20026;-74
2021/08/04 07:09:26;;;;;;;8.27;7.13;;;16.00;99.90;;;;;;5002280;28;20053;-74
2021/08/04 07:11:52;;;;;;;9.45;7.75;;;16.00;99.90;;;;;;4999978;28;20022;-74
2021/08/04 07:14:18;;;;;;;8.18;7.38;;;15.80;99.90;;;;;;4993660;28;20037;-74
2021/08/04 07:16:48;;;;;;;11.90;7.38;;;15.80;99.90;;;;;;5006787;28;20101;-74
2021/08/04 07:19:14;;;;;;;8.70;7.45;;;15.70;99.90;;;;;;5001049;28;20045;-73
2021/08/04 07:21:40;;;;;;;8.98;7.63;;;15.70;99.90;;;;;;4998938;28;20065;-75
2021/08/04 07:24:07;;;;;;;8.45;7.65;;;15.90;99.90;;;;;;5005886;28;20463;-74
2021/08/04 07:26:34;;;;;;;10.10;7.55;;;16.00;99.90;;;;;;5005414;28;20026;-74
2021/08/04 07:28:59;;;;;;;10.40;7.55;;;16.10;99.90;;;;;;5001341;28;20153;-73
2021/08/04 07:31:25;;;;;;;8.13;7.07;;;16.00;99.90;;;;;;4999077;28;20516;-74
2021/08/04 07:33:51;;;;;;;8.93;7.53;;;16.20;99.90;;;;;;4993644;28;20481;-74
2021/08/04 07:36:17;;;;;;;10.85;7.80;;;16.40;99.90;;;;;;5006649;28;20054;-75
2021/08/04 07:38:42;;;;;;;11.43;8.27;;;16.40;99.90;;;;;;4999178;28;20113;-74
2021/08/04 07:41:08;;;;;;;9.30;7.72;;;16.30;99.90;;;;;;4999806;28;20374;-73
2021/08/04 07:43:33;;;;;;;8.23;7.10;;;16.30;99.90;;;;;;5005141;28;20030;-73
2021/08/04 07:45:59;;;;;;;7.68;6.85;;;16.70;99.90;;;;;;5006342;28;20025;-76
2021/08/04 07:48:27;;;;;;;8.32;7.53;;;17.00;99.90;;;;;;4992121;28;20503;-74
2021/08/04 07:50:53;;;;;;;7.50;6.70;;;17.00;99.90;;;;;;4971977;28;1030221;-74
2021/08/04 07:53:18;;;;;;;9.27;7.00;;;17.20;99.90;;;;;;5001369;28;20038;-75
2021/08/04 07:55:44;;;;;;;9.68;7.18;;;17.30;99.90;;;;;;5000342;28;20039;-73
2021/08/04 07:58:09;;;;;;;8.85;7.30;;;17.00;99.90;;;;;;5006998;28;20037;-74
2021/08/04 08:00:35;;;;;;;8.05;6.30;;;16.70;99.90;;;;;;5007151;28;20058;-74
2021/08/04 08:03:02;;;;;;;8.73;6.65;;;16.80;99.90;;;;;;5000983;28;20109;-73
2021/08/04 08:05:27;;;;;;;6.78;6.07;;;16.90;99.90;;;;;;5012465;28;20485;-74
2021/08/04 08:07:53;;;;;;;8.20;6.07;;;17.00;99.90;;;;;;5006481;28;20061;-74
2021/08/04 08:10:19;;;;;;;8.98;6.93;;;17.00;99.90;;;;;;5007111;28;20112;-74
2021/08/04 08:12:48;;;;;;;7.43;6.53;;;16.70;99.90;;;;;;5000859;28;20041;-74
2021/08/04 08:15:14;;;;;;;8.27;6.53;;;17.10;99.90;;;;;;4999300;28;20026;-73
2021/08/04 08:17:40;;;;;;;7.18;6.47;;;17.30;99.90;;;;;;4999648;28;20488;-73
2021/08/04 08:20:07;;;;;;;6.28;5.55;;;17.70;99.90;;;;;;4999126;28;20026;-74
2021/08/04 08:22:33;;;;;;;8.00;6.32;;;17.80;99.90;;;;;;5004892;28;20049;-74
2021/08/04 08:24:59;;;;;;;7.43;6.22;;;17.60;99.90;;;;;;5006542;28;20030;-73
2021/08/04 08:27:25;;;;;;;6.35;5.72;;;17.50;99.90;;;;;;4999582;28;20026;-73
2021/08/04 08:29:50;;;;;;;6.97;5.75;;;17.60;99.90;;;;;;5012433;28;20033;-73
2021/08/04 08:32:16;;;;;;;5.85;5.35;;;17.50;99.90;;;;;;5000768;28;20488;-74
2021/08/04 08:34:42;;;;;;;26.13;14.07;;;17.60;99.90;;;;;;4999537;28;20109;-74
2021/08/04 08:37:08;;;;;;;5.65;5.13;;;17.60;99.90;;;;;;5004638;28;20509;-75
2021/08/04 08:39:34;;;;;;;5.78;4.95;;;17.80;99.90;;;;;;5006445;28;20021;-75
2021/08/04 08:42:00;;;;;;;6.22;5.10;;;18.10;99.90;;;;;;4993370;28;20458;-73
2021/08/04 08:44:26;;;;;;;5.10;4.60;;;17.90;99.90;;;;;;4993043;28;20054;-75
2021/08/04 08:46:51;;;;;;;6.07;4.43;;;17.80;99.90;;;;;;5000368;28;20061;-74
2021/08/04 08:49:24;;;;;;;23.45;14.02;;;17.70;99.90;;;;;;4999407;28;20511;-74
2021/08/04 08:51:50;;;;;;;5.70;4.80;;;17.70;99.90;;;;;;5004801;28;20512;-75
2021/08/04 08:54:16;;;;;;;5.88;4.68;;;17.80;99.90;;;;;;4994825;28;20034;-74
2021/08/04 08:56:43;;;;;;;5.65;4.57;;;18.00;99.90;;;;;;5003272;28;20022;-73
2021/08/04 08:59:09;;;;;;;5.07;4.28;;;18.10;99.90;;;;;;5005887;28;20117;-74
2021/08/04 09:01:37;;;;;;;5.32;4.40;;;17.70;99.90;;;;;;5001052;28;20096;-75
2021/08/04 09:04:06;;;;;;;8.20;5.40;;;17.80;99.90;;;;;;4997522;28;20023;-74
2021/08/04 09:06:50;;;;;;;6.15;5.28;;;18.20;99.90;;;;;;5002022;28;20508;-73
2021/08/04 09:09:19;;;;;;;6.32;4.57;;;18.40;99.90;;;;;;4999335;28;20036;-74
2021/08/04 09:11:46;;;;;;;5.05;4.55;;;18.40;99.90;;;;;;5012501;28;20101;-73
2021/08/04 09:14:12;;;;;;;4.78;3.90;;;18.40;99.90;;;;;;4999199;28;20523;-74
2021/08/04 09:16:39;;;;;;;4.13;3.72;;;18.80;99.90;;;;;;5000050;28;20076;-74
2021/08/04 09:19:20;;;;;;;7.47;3.90;;;18.80;99.90;;;;;;5005617;28;20034;-74
2021/08/04 09:22:09;;;;;;;5.65;4.38;;;19.10;99.90;;;;;;5005736;28;20562;-74
2021/08/04 09:24:54;;;;;;;5.05;3.78;;;19.10;99.90;;;;;;4992566;28;20030;-74
2021/08/04 09:27:20;;;;;;;5.13;3.63;;;19.60;99.90;;;;;;4986551;28;20376;-74
2021/08/04 09:29:59;;;;;;;11.52;7.93;;;19.70;99.90;;;;;;4997633;28;20033;-74
2021/08/04 09:32:26;;;;;;;4.18;3.78;;;19.70;99.90;;;;;;5003181;28;20030;-74
2021/08/04 09:34:53;;;;;;;3.92;3.53;;;19.10;99.90;;;;;;5005479;28;20029;-74
2021/08/04 09:37:19;;;;;;;6.28;4.85;;;19.40;99.90;;;;;;5001697;28;20101;-74
2021/08/04 09:39:55;;;;;;;5.97;3.47;;;19.70;99.90;;;;;;4997650;28;20385;-74
2021/08/04 09:42:21;;;;;;;5.63;3.33;;;19.50;99.90;;;;;;5001608;28;20022;-74
2021/08/04 09:44:57;;;;;;;6.72;4.55;;;19.30;99.90;;;;;;5005413;28;20034;-74
2021/08/04 09:47:24;;;;;;;5.57;4.00;;;19.70;99.90;;;;;;5004601;28;20026;-74
2021/08/04 09:49:58;;;;;;;5.93;3.75;;;19.40;99.90;;;;;;4998738;28;20034;-74
2021/08/04 09:52:24;;;;;;;4.85;3.63;;;19.20;99.90;;;;;;4998771;28;20030;-74
2021/08/04 09:54:49;;;;;;;6.80;4.75;;;19.40;99.90;;;;;;4985802;28;20033;-74
2021/08/04 09:57:16;;;;;;;5.63;4.53;;;19.00;99.90;;;;;;4998855;28;20026;-73
2021/08/04 10:00:07;;;;;;;4.25;3.85;;;18.60;99.90;;;;;;5005354;28;20026;-73
2021/08/04 10:02:32;;;;;;;5.05;4.07;;;18.30;99.90;;;;;;5005464;28;20048;-74
2021/08/04 10:05:21;;;;;;;5.20;3.70;;;18.40;99.90;;;;;;4992174;28;20537;-75
2021/08/04 10:08:19;;;;;;;4.70;4.18;;;18.90;99.90;;;;;;5005392;28;20025;-74
2021/08/04 10:10:50;;;;;;;5.50;4.50;;;19.90;99.90;;;;;;5004167;28;20109;-74
2021/08/04 10:13:18;;;;;;;5.13;3.20;;;20.00;99.90;;;;;;5003322;28;20018;-74
2021/08/04 10:15:46;;;;;;;6.20;3.80;;;19.70;99.90;;;;;;4997078;28;20457;-73
2021/08/04 10:18:14;;;;;;;3.20;2.90;;;20.20;99.90;;;;;;5000379;28;20022;-74
2021/08/04 10:20:40;;;;;;;3.55;3.22;;;20.00;99.90;;;;;;5005133;28;20037;-73
2021/08/04 10:23:11;;;;;;;3.72;3.33;;;20.20;99.90;;;;;;5003892;28;20385;-73
2021/08/04 10:25:36;;;;;;;3.50;3.17;;;20.30;99.90;;;;;;4998080;28;20096;-74
2021/08/04 10:28:04;;;;;;;4.25;2.70;;;20.50;99.90;;;;;;4999875;28;20030;-73
2021/08/04 10:30:31;;;;;;;4.75;2.90;;;20.60;99.90;;;;;;4990678;28;20042;-73
2021/08/04 10:32:57;;;;;;;3.78;3.47;;;20.40;99.90;;;;;;4991918;28;20023;-73
2021/08/04 10:35:24;;;;;;;5.65;2.90;;;20.40;99.90;;;;;;4990416;28;20114;-73
2021/08/04 10:37:50;;;;;;;4.07;2.80;;;21.10;99.90;;;;;;4991930;28;20029;-72
2021/08/04 10:40:17;;;;;;;6.35;4.18;;;20.90;99.90;;;;;;4991773;28;20042;-73
2021/08/04 10:42:44;;;;;;;3.28;2.97;;;20.70;99.90;;;;;;5005346;28;20029;-73
2021/08/04 10:45:22;;;;;;;3.28;2.97;;;21.10;99.90;;;;;;5014947;28;20495;-73
2021/08/04 10:47:49;;;;;;;6.80;2.75;;;20.70;99.90;;;;;;5015061;28;20049;-73
2021/08/04 10:50:14;;;;;;;3.30;3.00;;;20.50;99.90;;;;;;5013550;28;20042;-73
2021/08/04 10:52:58;;;;;;;3.78;2.75;;;20.80;99.90;;;;;;5015058;28;20034;-73
2021/08/04 10:55:54;;;;;;;2.95;2.70;;;21.00;99.90;;;;;;5013457;28;20060;-73
2021/08/04 10:58:19;;;;;;;5.07;2.83;;;20.90;99.90;;;;;;5014882;28;20589;-73
2021/08/04 11:00:46;;;;;;;4.57;2.70;;;21.10;99.90;;;;;;5014796;28;20025;-73
2021/08/04 11:03:30;;;;;;;4.05;2.60;;;20.70;99.90;;;;;;5013495;28;20388;-73
2021/08/04 11:06:06;;;;;;;6.05;3.03;;;20.40;99.90;;;;;;4996916;28;20030;-73
2021/08/04 11:08:32;;;;;;;2.75;2.45;;;20.60;99.90;;;;;;4993736;28;20370;-73
2021/08/04 11:10:58;;;;;;;2.50;2.30;;;20.20;99.90;;;;;;4994855;28;20096;-74
2021/08/04 11:13:54;;;;;;;5.05;2.80;;;19.60;99.90;;;;;;4990491;28;20513;-72
2021/08/04 11:16:32;;;;;;;4.60;2.75;;;19.20;99.90;;;;;;4999278;28;20060;-73
2021/08/04 11:19:10;;;;;;;3.10;2.80;;;19.10;99.90;;;;;;5002687;28;20030;-73
2021/08/04 11:21:37;;;;;;;4.07;3.08;;;19.00;99.90;;;;;;4993141;28;20014;-73
2021/08/04 11:24:06;;;;;;;5.65;3.03;;;19.10;99.90;;;;;;4999265;28;20024;-73
2021/08/04 11:26:37;;;;;;;4.15;2.83;;;19.10;99.90;;;;;;5005200;28;20045;-73
2021/08/04 11:29:04;;;;;;;5.43;3.13;;;18.80;99.90;;;;;;5002169;28;20034;-73
2021/08/04 11:31:30;;;;;;;3.95;3.65;;;18.60;99.90;;;;;;5007811;28;20046;-73
2021/08/04 11:34:00;;;;;;;3.63;3.33;;;18.60;99.90;;;;;;5008749;28;20057;-73
2021/08/04 11:36:29;;;;;;;3.65;3.33;;;18.60;99.90;;;;;;5006294;28;20025;-73
2021/08/04 11:38:58;;;;;;;3.40;3.10;;;18.10;99.90;;;;;;5007595;28;20022;-73
2021/08/04 11:41:43;;;;;;;2.63;2.40;;;18.20;99.90;;;;;;5002420;28;20021;-73
2021/08/04 11:44:14;;;;;;;3.97;2.72;;;18.40;99.90;;;;;;5007658;28;20022;-74
2021/08/04 11:46:41;;;;;;;3.88;2.28;;;18.50;99.90;;;;;;5006642;28;20037;-73
2021/08/04 11:49:12;;;;;;;3.17;2.58;;;18.80;99.90;;;;;;5004375;28;20030;-73
2021/08/04 11:51:50;;;;;;;3.28;2.40;;;19.10;99.90;;;;;;4999330;28;20423;-73
2021/08/04 11:54:32;;;;;;;5.65;2.33;;;19.50;99.90;;;;;;5002646;28;20014;-73
2021/08/04 11:56:58;;;;;;;3.35;2.40;;;19.80;99.90;;;;;;5006660;28;20025;-73
2021/08/04 11:59:23;;;;;;;3.47;2.50;;;19.80;99.90;;;;;;5004256;28;20022;-73
2021/08/04 12:02:07;;;;;;;3.22;2.17;;;20.20;99.90;;;;;;5005481;28;20014;-73
2021/08/04 12:04:42;;;;;;;5.15;2.47;;;20.30;99.90;;;;;;4995313;28;20084;-73
2021/08/04 12:07:08;;;;;;;3.22;2.47;;;20.60;99.90;;;;;;5004074;28;20026;-73
2021/08/04 12:09:39;;;;;;;2.78;2.55;;;19.90;99.90;;;;;;5002084;28;20026;-73
2021/08/04 12:12:17;;;;;;;8.65;2.63;;;20.30;99.90;;;;;;5003077;28;20041;-73
2021/08/04 12:14:43;;;;;;;4.22;2.92;;;20.50;99.90;;;;;;5004935;28;20025;-73
2021/08/04 12:17:09;;;;;;;3.78;2.80;;;20.30;99.90;;;;;;5001939;28;20214;-74
2021/08/04 12:19:43;;;;;;;3.10;2.80;;;19.80;99.90;;;;;;5004901;28;20567;-74
2021/08/04 12:22:21;;;;;;;4.05;2.78;;;20.50;99.90;;;;;;5000433;28;20026;-73
2021/08/04 12:24:49;;;;;;;3.45;2.90;;;20.70;99.90;;;;;;5003385;28;20014;-73
2021/08/04 12:27:33;;;;;;;5.05;2.95;;;20.80;99.90;;;;;;5002525;28;20505;-74
2021/08/04 12:30:27;;;;;;;3.17;2.80;;;20.60;99.90;;;;;;5003240;28;20029;-73
2021/08/04 12:33:05;;;;;;;2.90;2.40;;;20.70;99.90;;;;;;4999514;28;20407;-73
2021/08/04 12:35:40;;;;;;;4.47;2.75;;;20.70;99.90;;;;;;4995636;28;20108;-74
2021/08/04 12:38:16;;;;;;;2.88;2.28;;;21.10;99.90;;;;;;5003425;28;20029;-73
2021/08/04 12:40:45;;;;;;;3.40;2.58;;;20.60;99.90;;;;;;5004641;28;20103;-74
2021/08/04 12:43:13;;;;;;;2.72;2.47;;;20.60;99.90;;;;;;5002914;28;20030;-74
2021/08/04 12:45:56;;;;;;;3.05;2.40;;;20.80;99.90;;;;;;5004397;28;20105;-73
2021/08/04 12:48:39;;;;;;;3.28;2.67;;;20.40;99.90;;;;;;5000080;28;20036;-74
2021/08/04 12:51:09;;;;;;;3.42;2.67;;;20.40;99.90;;;;;;5003175;28;20411;-73
2021/08/04 12:53:36;;;;;;;4.20;2.67;;;20.40;99.90;;;;;;5004150;28;20404;-73